Terminal Aerodrome Forecast
Issued by NWS Pocatello, ID

Home | Current Version | Previous Version | Text Only | Print | Product List | Glossary On
Versions: 1 2 3 4 5 6 7 8 9 10 11 12 13 14
000
FTUS45 KPIH 182322
TAFPIH
TAF
KPIH 182322Z 1900/1924 18011KT P6SM BKN100
     FM190200 18012KT P6SM SCT040 OVC060 WS014/23042KT
     FM190600 18018KT P6SM SCT020 BKN060
     FM191300 24010KT 5SM -RA OVC020
     FM191900 24015G25KT P6SM VCSH SCT020 OVC040=

USA.gov is the U.S. government's official web portal to all federal, state and local government web resources and services.